sensor_id;sensor_type;location;lat;lon;timestamp;P1;durP1;ratioP1;P2;durP2;ratioP2
6185;SDS011;3126;52.738;8.316;2023-11-21T00:01:46;24.42;;;11.00;;
6185;SDS011;3126;52.738;8.316;2023-11-21T00:06:47;28.30;;;12.07;;
6185;SDS011;3126;52.738;8.316;2023-11-21T00:11:48;22.58;;;11.02;;
6185;SDS011;3126;52.738;8.316;2023-11-21T00:16:49;29.52;;;12.27;;
6185;SDS011;3126;52.738;8.316;2023-11-21T00:21:50;24.73;;;12.02;;
6185;SDS011;3126;52.738;8.316;2023-11-21T00:26:51;31.40;;;13.15;;
6185;SDS011;3126;52.738;8.316;2023-11-21T00:31:53;26.05;;;12.18;;
6185;SDS011;3126;52.738;8.316;2023-11-21T00:36:54;26.85;;;12.60;;
6185;SDS011;3126;52.738;8.316;2023-11-21T00:41:55;31.23;;;13.23;;
6185;SDS011;3126;52.738;8.316;2023-11-21T00:46:56;30.75;;;13.10;;
6185;SDS011;3126;52.738;8.316;2023-11-21T00:51:57;25.38;;;13.43;;
6185;SDS011;3126;52.738;8.316;2023-11-21T00:56:58;25.95;;;13.20;;
6185;SDS011;3126;52.738;8.316;2023-11-21T01:01:58;31.85;;;13.93;;
6185;SDS011;3126;52.738;8.316;2023-11-21T01:07:00;35.47;;;14.80;;
6185;SDS011;3126;52.738;8.316;2023-11-21T01:12:01;35.63;;;14.27;;
6185;SDS011;3126;52.738;8.316;2023-11-21T01:17:02;33.03;;;15.00;;
6185;SDS011;3126;52.738;8.316;2023-11-21T01:22:04;30.55;;;14.52;;
6185;SDS011;3126;52.738;8.316;2023-11-21T01:27:05;44.95;;;17.35;;
6185;SDS011;3126;52.738;8.316;2023-11-21T01:32:07;32.08;;;15.77;;
6185;SDS011;3126;52.738;8.316;2023-11-21T01:37:08;45.05;;;19.08;;
6185;SDS011;3126;52.738;8.316;2023-11-21T01:42:12;41.78;;;18.05;;
6185;SDS011;3126;52.738;8.316;2023-11-21T01:47:13;37.45;;;19.45;;
6185;SDS011;3126;52.738;8.316;2023-11-21T01:52:14;42.38;;;17.90;;
6185;SDS011;3126;52.738;8.316;2023-11-21T01:57:15;45.47;;;21.00;;
6185;SDS011;3126;52.738;8.316;2023-11-21T02:02:16;34.15;;;17.13;;
6185;SDS011;3126;52.738;8.316;2023-11-21T02:07:17;33.15;;;16.48;;
6185;SDS011;3126;52.738;8.316;2023-11-21T02:12:19;37.42;;;15.85;;
6185;SDS011;3126;52.738;8.316;2023-11-21T02:17:20;38.72;;;16.95;;
6185;SDS011;3126;52.738;8.316;2023-11-21T02:22:21;39.55;;;16.27;;
6185;SDS011;3126;52.738;8.316;2023-11-21T02:27:26;36.97;;;17.02;;
6185;SDS011;3126;52.738;8.316;2023-11-21T02:32:27;40.63;;;17.08;;
6185;SDS011;3126;52.738;8.316;2023-11-21T02:37:31;55.00;;;20.40;;
6185;SDS011;3126;52.738;8.316;2023-11-21T02:42:32;60.05;;;24.95;;
6185;SDS011;3126;52.738;8.316;2023-11-21T02:47:34;55.38;;;21.90;;
6185;SDS011;3126;52.738;8.316;2023-11-21T02:52:35;58.97;;;23.42;;
6185;SDS011;3126;52.738;8.316;2023-11-21T02:57:36;46.60;;;18.55;;
6185;SDS011;3126;52.738;8.316;2023-11-21T03:02:37;47.42;;;18.15;;
6185;SDS011;3126;52.738;8.316;2023-11-21T03:07:38;48.53;;;20.02;;
6185;SDS011;3126;52.738;8.316;2023-11-21T03:12:40;55.58;;;18.27;;
6185;SDS011;3126;52.738;8.316;2023-11-21T03:17:40;49.92;;;19.42;;
6185;SDS011;3126;52.738;8.316;2023-11-21T03:22:42;42.75;;;18.10;;
6185;SDS011;3126;52.738;8.316;2023-11-21T03:27:43;43.55;;;18.60;;
6185;SDS011;3126;52.738;8.316;2023-11-21T03:32:44;48.92;;;17.15;;
6185;SDS011;3126;52.738;8.316;2023-11-21T03:37:45;48.17;;;18.65;;
6185;SDS011;3126;52.738;8.316;2023-11-21T03:42:46;42.83;;;16.58;;
6185;SDS011;3126;52.738;8.316;2023-11-21T03:47:47;41.88;;;17.63;;
6185;SDS011;3126;52.738;8.316;2023-11-21T03:52:48;37.20;;;16.50;;
6185;SDS011;3126;52.738;8.316;2023-11-21T03:57:49;41.85;;;15.23;;
6185;SDS011;3126;52.738;8.316;2023-11-21T04:02:50;36.35;;;14.82;;
6185;SDS011;3126;52.738;8.316;2023-11-21T04:07:51;37.67;;;14.88;;
6185;SDS011;3126;52.738;8.316;2023-11-21T04:12:52;32.53;;;16.30;;
6185;SDS011;3126;52.738;8.316;2023-11-21T04:17:53;35.92;;;15.88;;
6185;SDS011;3126;52.738;8.316;2023-11-21T04:22:54;31.60;;;15.20;;
6185;SDS011;3126;52.738;8.316;2023-11-21T04:27:55;32.20;;;15.55;;
6185;SDS011;3126;52.738;8.316;2023-11-21T04:32:56;32.67;;;14.95;;
6185;SDS011;3126;52.738;8.316;2023-11-21T04:37:57;35.15;;;16.83;;
6185;SDS011;3126;52.738;8.316;2023-11-21T04:42:58;35.47;;;16.40;;
6185;SDS011;3126;52.738;8.316;2023-11-21T04:47:59;35.08;;;15.45;;
6185;SDS011;3126;52.738;8.316;2023-11-21T04:53:00;37.47;;;17.83;;
6185;SDS011;3126;52.738;8.316;2023-11-21T04:58:01;38.30;;;18.20;;
6185;SDS011;3126;52.738;8.316;2023-11-21T05:03:04;42.35;;;18.75;;
6185;SDS011;3126;52.738;8.316;2023-11-21T05:08:07;41.90;;;18.58;;
6185;SDS011;3126;52.738;8.316;2023-11-21T05:13:08;40.28;;;18.55;;
6185;SDS011;3126;52.738;8.316;2023-11-21T05:18:10;52.47;;;20.25;;
6185;SDS011;3126;52.738;8.316;2023-11-21T05:23:13;47.70;;;18.35;;
6185;SDS011;3126;52.738;8.316;2023-11-21T05:28:14;42.80;;;18.00;;
6185;SDS011;3126;52.738;8.316;2023-11-21T05:33:15;50.97;;;21.15;;
6185;SDS011;3126;52.738;8.316;2023-11-21T05:38:16;52.42;;;23.38;;
6185;SDS011;3126;52.738;8.316;2023-11-21T05:43:17;41.97;;;20.48;;
6185;SDS011;3126;52.738;8.316;2023-11-21T05:48:18;47.20;;;19.08;;
6185;SDS011;3126;52.738;8.316;2023-11-21T05:53:21;47.63;;;18.55;;
6185;SDS011;3126;52.738;8.316;2023-11-21T05:58:22;39.38;;;16.65;;
6185;SDS011;3126;52.738;8.316;2023-11-21T06:03:23;36.33;;;15.75;;
6185;SDS011;3126;52.738;8.316;2023-11-21T06:08:25;45.83;;;16.98;;
6185;SDS011;3126;52.738;8.316;2023-11-21T06:13:26;36.95;;;14.57;;
6185;SDS011;3126;52.738;8.316;2023-11-21T06:18:27;31.48;;;12.90;;
6185;SDS011;3126;52.738;8.316;2023-11-21T06:23:29;30.95;;;12.18;;
6185;SDS011;3126;52.738;8.316;2023-11-21T06:28:30;24.52;;;11.52;;
6185;SDS011;3126;52.738;8.316;2023-11-21T06:33:31;36.65;;;13.32;;
6185;SDS011;3126;52.738;8.316;2023-11-21T06:38:32;27.92;;;12.27;;
6185;SDS011;3126;52.738;8.316;2023-11-21T06:43:33;34.60;;;14.68;;
6185;SDS011;3126;52.738;8.316;2023-11-21T06:48:34;31.33;;;15.38;;
6185;SDS011;3126;52.738;8.316;2023-11-21T06:53:38;22.08;;;10.90;;
6185;SDS011;3126;52.738;8.316;2023-11-21T06:58:39;16.23;;;10.02;;
6185;SDS011;3126;52.738;8.316;2023-11-21T07:03:41;13.82;;;8.32;;
6185;SDS011;3126;52.738;8.316;2023-11-21T07:08:42;12.82;;;7.93;;
6185;SDS011;3126;52.738;8.316;2023-11-21T07:13:43;13.73;;;7.60;;
6185;SDS011;3126;52.738;8.316;2023-11-21T07:18:44;15.02;;;7.10;;
6185;SDS011;3126;52.738;8.316;2023-11-21T07:23:45;13.73;;;7.90;;
6185;SDS011;3126;52.738;8.316;2023-11-21T07:28:46;15.50;;;8.40;;
6185;SDS011;3126;52.738;8.316;2023-11-21T07:33:47;11.95;;;8.25;;
6185;SDS011;3126;52.738;8.316;2023-11-21T07:38:48;14.05;;;8.15;;
6185;SDS011;3126;52.738;8.316;2023-11-21T07:43:49;13.98;;;7.78;;
6185;SDS011;3126;52.738;8.316;2023-11-21T07:48:50;13.05;;;7.43;;
6185;SDS011;3126;52.738;8.316;2023-11-21T07:53:52;11.38;;;7.20;;
6185;SDS011;3126;52.738;8.316;2023-11-21T07:58:53;10.25;;;6.68;;
6185;SDS011;3126;52.738;8.316;2023-11-21T08:03:54;10.20;;;6.35;;
6185;SDS011;3126;52.738;8.316;2023-11-21T08:08:57;9.60;;;5.53;;
6185;SDS011;3126;52.738;8.316;2023-11-21T08:13:58;9.95;;;5.65;;
6185;SDS011;3126;52.738;8.316;2023-11-21T08:18:59;9.38;;;6.60;;
6185;SDS011;3126;52.738;8.316;2023-11-21T08:24:01;9.40;;;6.32;;
6185;SDS011;3126;52.738;8.316;2023-11-21T08:29:04;14.60;;;6.13;;
6185;SDS011;3126;52.738;8.316;2023-11-21T08:34:07;10.38;;;6.85;;
6185;SDS011;3126;52.738;8.316;2023-11-21T08:39:08;13.35;;;7.00;;
6185;SDS011;3126;52.738;8.316;2023-11-21T08:44:10;9.00;;;6.35;;
6185;SDS011;3126;52.738;8.316;2023-11-21T08:49:11;10.10;;;6.88;;
6185;SDS011;3126;52.738;8.316;2023-11-21T08:54:12;9.80;;;6.72;;
6185;SDS011;3126;52.738;8.316;2023-11-21T08:59:13;10.02;;;6.57;;
6185;SDS011;3126;52.738;8.316;2023-11-21T09:04:14;10.55;;;6.97;;
6185;SDS011;3126;52.738;8.316;2023-11-21T09:09:15;9.77;;;7.07;;
6185;SDS011;3126;52.738;8.316;2023-11-21T09:14:16;10.95;;;6.30;;
6185;SDS011;3126;52.738;8.316;2023-11-21T09:19:17;13.18;;;8.27;;
6185;SDS011;3126;52.738;8.316;2023-11-21T09:24:19;11.35;;;7.30;;
6185;SDS011;3126;52.738;8.316;2023-11-21T09:29:20;11.40;;;6.95;;
6185;SDS011;3126;52.738;8.316;2023-11-21T09:34:22;10.80;;;7.07;;
6185;SDS011;3126;52.738;8.316;2023-11-21T09:39:23;11.82;;;7.38;;
6185;SDS011;3126;52.738;8.316;2023-11-21T09:44:45;11.82;;;6.72;;
6185;SDS011;3126;52.738;8.316;2023-11-21T09:49:47;10.75;;;6.70;;
6185;SDS011;3126;52.738;8.316;2023-11-21T09:54:49;10.65;;;6.70;;
6185;SDS011;3126;52.738;8.316;2023-11-21T09:59:51;9.52;;;6.28;;
6185;SDS011;3126;52.738;8.316;2023-11-21T10:04:56;10.70;;;7.13;;
6185;SDS011;3126;52.738;8.316;2023-11-21T10:09:59;10.00;;;6.82;;
6185;SDS011;3126;52.738;8.316;2023-11-21T10:15:00;8.77;;;6.40;;
6185;SDS011;3126;52.738;8.316;2023-11-21T10:20:06;9.88;;;6.32;;
6185;SDS011;3126;52.738;8.316;2023-11-21T10:25:12;9.73;;;6.63;;
6185;SDS011;3126;52.738;8.316;2023-11-21T10:30:14;10.05;;;6.50;;
6185;SDS011;3126;52.738;8.316;2023-11-21T10:35:16;8.68;;;6.10;;
6185;SDS011;3126;52.738;8.316;2023-11-21T10:40:17;8.60;;;5.65;;
6185;SDS011;3126;52.738;8.316;2023-11-21T10:45:18;9.80;;;6.07;;
6185;SDS011;3126;52.738;8.316;2023-11-21T10:50:19;8.15;;;6.07;;
6185;SDS011;3126;52.738;8.316;2023-11-21T10:55:20;9.23;;;6.93;;
6185;SDS011;3126;52.738;8.316;2023-11-21T11:00:22;8.52;;;6.65;;
6185;SDS011;3126;52.738;8.316;2023-11-21T11:05:24;11.13;;;6.15;;
6185;SDS011;3126;52.738;8.316;2023-11-21T11:10:26;9.50;;;5.50;;
6185;SDS011;3126;52.738;8.316;2023-11-21T11:15:28;8.25;;;5.72;;
6185;SDS011;3126;52.738;8.316;2023-11-21T11:20:30;7.25;;;5.53;;
6185;SDS011;3126;52.738;8.316;2023-11-21T11:35:46;8.48;;;5.68;;
6185;SDS011;3126;52.738;8.316;2023-11-21T11:40:52;9.48;;;6.32;;
6185;SDS011;3126;52.738;8.316;2023-11-21T11:45:57;11.88;;;5.80;;
6185;SDS011;3126;52.738;8.316;2023-11-21T11:51:10;9.32;;;6.55;;
6185;SDS011;3126;52.738;8.316;2023-11-21T11:56:29;8.25;;;5.70;;
6185;SDS011;3126;52.738;8.316;2023-11-21T12:01:33;8.75;;;6.38;;
6185;SDS011;3126;52.738;8.316;2023-11-21T12:06:35;8.13;;;5.85;;
6185;SDS011;3126;52.738;8.316;2023-11-21T12:11:36;9.30;;;6.53;;
6185;SDS011;3126;52.738;8.316;2023-11-21T12:16:37;7.40;;;6.10;;
6185;SDS011;3126;52.738;8.316;2023-11-21T12:21:38;8.30;;;6.22;;
6185;SDS011;3126;52.738;8.316;2023-11-21T12:26:44;10.13;;;6.10;;
6185;SDS011;3126;52.738;8.316;2023-11-21T12:31:45;10.75;;;6.78;;
6185;SDS011;3126;52.738;8.316;2023-11-21T12:36:46;10.75;;;6.85;;
6185;SDS011;3126;52.738;8.316;2023-11-21T12:41:47;9.32;;;6.63;;
6185;SDS011;3126;52.738;8.316;2023-11-21T12:46:48;8.23;;;6.80;;
6185;SDS011;3126;52.738;8.316;2023-11-21T12:51:49;8.00;;;6.10;;
6185;SDS011;3126;52.738;8.316;2023-11-21T12:56:51;7.72;;;5.93;;
6185;SDS011;3126;52.738;8.316;2023-11-21T13:01:53;9.50;;;6.50;;
6185;SDS011;3126;52.738;8.316;2023-11-21T13:07:02;8.57;;;6.65;;
6185;SDS011;3126;52.738;8.316;2023-11-21T13:12:10;11.27;;;7.13;;
6185;SDS011;3126;52.738;8.316;2023-11-21T13:17:12;8.70;;;6.40;;
6185;SDS011;3126;52.738;8.316;2023-11-21T13:22:13;8.77;;;6.40;;
6185;SDS011;3126;52.738;8.316;2023-11-21T13:27:14;9.57;;;6.65;;
6185;SDS011;3126;52.738;8.316;2023-11-21T13:32:15;10.30;;;6.75;;
6185;SDS011;3126;52.738;8.316;2023-11-21T13:37:18;10.45;;;7.25;;
6185;SDS011;3126;52.738;8.316;2023-11-21T13:42:19;8.75;;;6.18;;
6185;SDS011;3126;52.738;8.316;2023-11-21T13:47:22;9.32;;;6.13;;
6185;SDS011;3126;52.738;8.316;2023-11-21T13:52:29;7.80;;;6.43;;
6185;SDS011;3126;52.738;8.316;2023-11-21T13:57:33;8.75;;;6.68;;
6185;SDS011;3126;52.738;8.316;2023-11-21T14:02:34;9.30;;;6.90;;
6185;SDS011;3126;52.738;8.316;2023-11-21T14:07:39;9.23;;;6.53;;
6185;SDS011;3126;52.738;8.316;2023-11-21T14:12:47;8.48;;;6.50;;
6185;SDS011;3126;52.738;8.316;2023-11-21T14:17:48;10.82;;;7.03;;
6185;SDS011;3126;52.738;8.316;2023-11-21T14:22:49;8.50;;;6.90;;
6185;SDS011;3126;52.738;8.316;2023-11-21T14:27:51;7.95;;;6.03;;
6185;SDS011;3126;52.738;8.316;2023-11-21T14:32:52;7.88;;;5.47;;
6185;SDS011;3126;52.738;8.316;2023-11-21T14:37:53;11.07;;;6.13;;
6185;SDS011;3126;52.738;8.316;2023-11-21T14:42:55;9.13;;;6.70;;
6185;SDS011;3126;52.738;8.316;2023-11-21T14:47:57;9.80;;;6.03;;
6185;SDS011;3126;52.738;8.316;2023-11-21T14:53:26;7.95;;;6.22;;
6185;SDS011;3126;52.738;8.316;2023-11-21T14:58:45;10.23;;;6.15;;
6185;SDS011;3126;52.738;8.316;2023-11-21T15:03:46;6.15;;;4.47;;
6185;SDS011;3126;52.738;8.316;2023-11-21T15:08:50;7.82;;;5.28;;
6185;SDS011;3126;52.738;8.316;2023-11-21T15:14:17;8.63;;;5.90;;
6185;SDS011;3126;52.738;8.316;2023-11-21T15:19:23;7.07;;;5.20;;
6185;SDS011;3126;52.738;8.316;2023-11-21T15:24:26;5.07;;;3.45;;
6185;SDS011;3126;52.738;8.316;2023-11-21T15:29:27;4.78;;;4.28;;
6185;SDS011;3126;52.738;8.316;2023-11-21T15:34:28;6.40;;;3.55;;
6185;SDS011;3126;52.738;8.316;2023-11-21T15:39:31;3.72;;;3.40;;
6185;SDS011;3126;52.738;8.316;2023-11-21T15:44:31;5.55;;;3.90;;
6185;SDS011;3126;52.738;8.316;2023-11-21T15:49:33;5.20;;;3.28;;
6185;SDS011;3126;52.738;8.316;2023-11-21T15:54:36;4.40;;;3.00;;
6185;SDS011;3126;52.738;8.316;2023-11-21T15:59:39;3.65;;;3.35;;
6185;SDS011;3126;52.738;8.316;2023-11-21T16:09:43;10.50;;;6.50;;
6185;SDS011;3126;52.738;8.316;2023-11-21T16:14:43;7.75;;;5.03;;
6185;SDS011;3126;52.738;8.316;2023-11-21T16:19:46;5.30;;;3.78;;
6185;SDS011;3126;52.738;8.316;2023-11-21T16:24:48;5.82;;;3.42;;
6185;SDS011;3126;52.738;8.316;2023-11-21T16:29:48;4.85;;;3.40;;
6185;SDS011;3126;52.738;8.316;2023-11-21T16:34:49;4.30;;;3.88;;
6185;SDS011;3126;52.738;8.316;2023-11-21T16:39:50;6.15;;;3.38;;
6185;SDS011;3126;52.738;8.316;2023-11-21T16:44:51;7.68;;;5.80;;
6185;SDS011;3126;52.738;8.316;2023-11-21T16:49:53;6.10;;;4.15;;
6185;SDS011;3126;52.738;8.316;2023-11-21T16:54:54;7.25;;;5.35;;
6185;SDS011;3126;52.738;8.316;2023-11-21T16:59:54;6.25;;;4.38;;
6185;SDS011;3126;52.738;8.316;2023-11-21T17:04:55;6.63;;;3.95;;
6185;SDS011;3126;52.738;8.316;2023-11-21T17:09:56;3.65;;;3.35;;
6185;SDS011;3126;52.738;8.316;2023-11-21T17:14:57;8.43;;;4.78;;
6185;SDS011;3126;52.738;8.316;2023-11-21T17:19:58;6.53;;;4.90;;
6185;SDS011;3126;52.738;8.316;2023-11-21T17:25:00;6.43;;;5.63;;
6185;SDS011;3126;52.738;8.316;2023-11-21T17:30:02;5.55;;;4.68;;
6185;SDS011;3126;52.738;8.316;2023-11-21T17:35:03;4.93;;;3.65;;
6185;SDS011;3126;52.738;8.316;2023-11-21T17:40:04;5.68;;;4.18;;
6185;SDS011;3126;52.738;8.316;2023-11-21T17:45:07;6.80;;;4.35;;
6185;SDS011;3126;52.738;8.316;2023-11-21T17:50:09;5.90;;;4.60;;
6185;SDS011;3126;52.738;8.316;2023-11-21T17:55:10;5.97;;;4.30;;
6185;SDS011;3126;52.738;8.316;2023-11-21T18:00:12;6.80;;;4.45;;
6185;SDS011;3126;52.738;8.316;2023-11-21T18:05:13;6.53;;;4.57;;
6185;SDS011;3126;52.738;8.316;2023-11-21T18:10:14;7.15;;;4.07;;
6185;SDS011;3126;52.738;8.316;2023-11-21T18:15:15;4.78;;;3.95;;
6185;SDS011;3126;52.738;8.316;2023-11-21T18:20:18;4.85;;;4.20;;
6185;SDS011;3126;52.738;8.316;2023-11-21T18:25:19;8.20;;;4.55;;
6185;SDS011;3126;52.738;8.316;2023-11-21T18:30:20;7.38;;;4.75;;
6185;SDS011;3126;52.738;8.316;2023-11-21T18:35:21;7.07;;;4.30;;
6185;SDS011;3126;52.738;8.316;2023-11-21T18:40:22;28.27;;;11.85;;
6185;SDS011;3126;52.738;8.316;2023-11-21T18:45:23;5.07;;;4.15;;
6185;SDS011;3126;52.738;8.316;2023-11-21T18:50:24;5.68;;;4.05;;
6185;SDS011;3126;52.738;8.316;2023-11-21T18:55:25;5.97;;;4.50;;
6185;SDS011;3126;52.738;8.316;2023-11-21T19:00:26;8.45;;;4.18;;
6185;SDS011;3126;52.738;8.316;2023-11-21T19:05:27;7.55;;;4.70;;
6185;SDS011;3126;52.738;8.316;2023-11-21T19:10:28;5.85;;;5.13;;
6185;SDS011;3126;52.738;8.316;2023-11-21T19:15:29;8.23;;;5.47;;
6185;SDS011;3126;52.738;8.316;2023-11-21T19:20:30;5.93;;;3.67;;
6185;SDS011;3126;52.738;8.316;2023-11-21T19:25:32;6.30;;;4.32;;
6185;SDS011;3126;52.738;8.316;2023-11-21T19:30:33;4.45;;;3.55;;
6185;SDS011;3126;52.738;8.316;2023-11-21T19:35:36;4.15;;;3.75;;
6185;SDS011;3126;52.738;8.316;2023-11-21T19:40:38;5.65;;;4.13;;
6185;SDS011;3126;52.738;8.316;2023-11-21T19:45:40;5.35;;;4.00;;
6185;SDS011;3126;52.738;8.316;2023-11-21T19:50:40;6.13;;;4.90;;
6185;SDS011;3126;52.738;8.316;2023-11-21T19:55:42;7.88;;;3.95;;
6185;SDS011;3126;52.738;8.316;2023-11-21T20:00:45;7.53;;;4.70;;
6185;SDS011;3126;52.738;8.316;2023-11-21T20:05:46;7.72;;;4.00;;
6185;SDS011;3126;52.738;8.316;2023-11-21T20:10:48;5.25;;;4.25;;
6185;SDS011;3126;52.738;8.316;2023-11-21T20:15:50;6.07;;;4.55;;
6185;SDS011;3126;52.738;8.316;2023-11-21T20:20:51;6.22;;;4.30;;
6185;SDS011;3126;52.738;8.316;2023-11-21T20:25:52;5.50;;;4.18;;
6185;SDS011;3126;52.738;8.316;2023-11-21T20:30:57;4.43;;;4.00;;
6185;SDS011;3126;52.738;8.316;2023-11-21T20:35:58;6.43;;;4.63;;
6185;SDS011;3126;52.738;8.316;2023-11-21T20:40:59;6.60;;;4.88;;
6185;SDS011;3126;52.738;8.316;2023-11-21T20:46:00;7.00;;;4.45;;
6185;SDS011;3126;52.738;8.316;2023-11-21T20:51:01;6.70;;;4.30;;
6185;SDS011;3126;52.738;8.316;2023-11-21T20:56:03;8.30;;;4.65;;
6185;SDS011;3126;52.738;8.316;2023-11-21T21:01:04;6.68;;;4.32;;
6185;SDS011;3126;52.738;8.316;2023-11-21T21:06:05;9.13;;;4.63;;
6185;SDS011;3126;52.738;8.316;2023-11-21T21:11:06;7.55;;;4.95;;
6185;SDS011;3126;52.738;8.316;2023-11-21T21:16:07;9.57;;;5.32;;
6185;SDS011;3126;52.738;8.316;2023-11-21T21:21:08;8.38;;;4.57;;
6185;SDS011;3126;52.738;8.316;2023-11-21T21:26:09;9.00;;;5.40;;
6185;SDS011;3126;52.738;8.316;2023-11-21T21:31:11;10.15;;;5.43;;
6185;SDS011;3126;52.738;8.316;2023-11-21T21:36:13;7.22;;;4.10;;
6185;SDS011;3126;52.738;8.316;2023-11-21T21:41:15;7.90;;;4.25;;
6185;SDS011;3126;52.738;8.316;2023-11-21T21:46:18;9.43;;;4.88;;
6185;SDS011;3126;52.738;8.316;2023-11-21T21:51:20;9.43;;;5.57;;
6185;SDS011;3126;52.738;8.316;2023-11-21T21:56:21;6.70;;;4.60;;
6185;SDS011;3126;52.738;8.316;2023-11-21T22:01:22;9.80;;;3.97;;
6185;SDS011;3126;52.738;8.316;2023-11-21T22:06:24;7.47;;;5.65;;
6185;SDS011;3126;52.738;8.316;2023-11-21T22:11:25;9.63;;;4.43;;
6185;SDS011;3126;52.738;8.316;2023-11-21T22:16:27;8.10;;;4.63;;
6185;SDS011;3126;52.738;8.316;2023-11-21T22:21:30;9.15;;;5.43;;
6185;SDS011;3126;52.738;8.316;2023-11-21T22:26:31;9.80;;;5.53;;
6185;SDS011;3126;52.738;8.316;2023-11-21T22:31:32;9.60;;;5.25;;
6185;SDS011;3126;52.738;8.316;2023-11-21T22:36:34;7.68;;;5.28;;
6185;SDS011;3126;52.738;8.316;2023-11-21T22:41:34;10.68;;;5.43;;
6185;SDS011;3126;52.738;8.316;2023-11-21T22:46:40;9.70;;;6.15;;
6185;SDS011;3126;52.738;8.316;2023-11-21T22:51:42;10.35;;;6.72;;
6185;SDS011;3126;52.738;8.316;2023-11-21T22:56:45;11.10;;;5.63;;
6185;SDS011;3126;52.738;8.316;2023-11-21T23:01:46;10.55;;;5.60;;
6185;SDS011;3126;52.738;8.316;2023-11-21T23:06:49;8.50;;;5.30;;
6185;SDS011;3126;52.738;8.316;2023-11-21T23:11:50;9.07;;;5.63;;
6185;SDS011;3126;52.738;8.316;2023-11-21T23:16:53;10.75;;;5.80;;
6185;SDS011;3126;52.738;8.316;2023-11-21T23:21:54;9.38;;;5.78;;
6185;SDS011;3126;52.738;8.316;2023-11-21T23:26:55;9.60;;;6.18;;
6185;SDS011;3126;52.738;8.316;2023-11-21T23:31:56;10.45;;;6.07;;
6185;SDS011;3126;52.738;8.316;2023-11-21T23:36:56;7.25;;;5.28;;
6185;SDS011;3126;52.738;8.316;2023-11-21T23:41:57;9.73;;;5.95;;
6185;SDS011;3126;52.738;8.316;2023-11-21T23:46:58;8.82;;;6.20;;
6185;SDS011;3126;52.738;8.316;2023-11-21T23:52:00;9.55;;;5.47;;
6185;SDS011;3126;52.738;8.316;2023-11-21T23:57:02;11.07;;;5.82;;
